createdAt,value
2023-05-24T00:02:27.187Z,84.57
2023-05-24T00:04:54.067Z,84.02
2023-05-24T00:07:20.819Z,84.09
2023-05-24T00:09:47.471Z,83.67
2023-05-24T00:12:14.135Z,84.28
2023-05-24T00:14:41.083Z,83.88
2023-05-24T00:17:07.820Z,84.13
2023-05-24T00:19:38.368Z,84.13
2023-05-24T00:22:05.326Z,83.47
2023-05-24T00:24:32.017Z,83.27
2023-05-24T00:26:58.704Z,83.17
2023-05-24T00:29:25.560Z,83.01
2023-05-24T00:31:52.336Z,82.94
2023-05-24T00:34:19.273Z,82.98
2023-05-24T00:36:46.439Z,83.27
2023-05-24T00:39:13.107Z,82.76
2023-05-24T00:41:39.739Z,82.93
2023-05-24T00:44:06.408Z,83.05
2023-05-24T00:46:33.776Z,82.87
2023-05-24T00:49:00.790Z,82.55
2023-05-24T00:51:28.087Z,82.41
2023-05-24T00:53:55.507Z,82.36
2023-05-24T00:56:22.830Z,82.80
2023-05-24T00:58:50.905Z,82.60
2023-05-24T01:01:18.140Z,82.97
2023-05-24T01:03:46.365Z,82.92
2023-05-24T01:06:13.532Z,82.86
2023-05-24T01:08:40.406Z,83.15
2023-05-24T01:11:32.021Z,83.06
2023-05-24T01:14:10.861Z,82.67
2023-05-24T01:16:46.675Z,82.18
2023-05-24T01:20:11.791Z,81.24
2023-05-24T01:22:38.414Z,81.58
2023-05-24T01:25:07.552Z,81.78
2023-05-24T01:27:34.732Z,81.86
2023-05-24T01:30:01.623Z,81.78
2023-05-24T01:32:28.692Z,81.82
2023-05-24T01:34:55.541Z,82.28
2023-05-24T01:37:22.289Z,82.50
2023-05-24T01:39:48.926Z,82.41
2023-05-24T01:42:24.897Z,83.22
2023-05-24T01:44:57.584Z,82.69
2023-05-24T01:47:51.860Z,82.68
2023-05-24T01:50:39.076Z,82.68
2023-05-24T01:53:09.722Z,82.53
2023-05-24T01:55:36.509Z,82.66
2023-05-24T01:58:03.856Z,83.31
2023-05-24T02:00:30.784Z,83.22
2023-05-24T02:02:58.278Z,83.40
2023-05-24T02:05:25.109Z,83.39
2023-05-24T02:07:52.508Z,83.66
2023-05-24T02:10:19.279Z,83.64
2023-05-24T02:12:46.066Z,83.51
2023-05-24T02:15:14.885Z,83.36
2023-05-24T02:17:42.971Z,83.57
2023-05-24T02:20:10.174Z,83.27
2023-05-24T02:22:36.947Z,83.58
2023-05-24T02:25:03.846Z,82.95
2023-05-24T02:27:30.799Z,82.95
2023-05-24T02:29:57.708Z,82.91
2023-05-24T02:32:24.524Z,83.09
2023-05-24T02:34:51.403Z,83.10
2023-05-24T02:37:18.126Z,83.02
2023-05-24T02:39:44.753Z,82.02
2023-05-24T02:42:11.533Z,81.99
2023-05-24T02:44:38.278Z,81.73
2023-05-24T02:47:05.566Z,81.53
2023-05-24T02:49:32.223Z,80.10
2023-05-24T02:51:59.204Z,80.37
2023-05-24T02:54:25.915Z,80.31
2023-05-24T02:56:52.921Z,80.63
2023-05-24T02:59:19.604Z,81.24
2023-05-24T03:01:46.396Z,81.01
2023-05-24T03:04:13.108Z,81.47
2023-05-24T03:06:39.909Z,81.50
2023-05-24T03:09:06.911Z,81.75
2023-05-24T03:11:34.073Z,82.04
2023-05-24T03:14:00.822Z,80.89
2023-05-24T03:16:27.484Z,79.84
2023-05-24T03:18:55.519Z,80.43
2023-05-24T03:21:23.782Z,80.85
2023-05-24T03:23:50.579Z,81.33
2023-05-24T03:26:18.723Z,81.07
2023-05-24T03:28:45.557Z,81.76
2023-05-24T03:31:12.575Z,81.90
2023-05-24T03:33:39.352Z,82.33
2023-05-24T03:36:09.456Z,82.33
2023-05-24T03:38:36.208Z,82.04
2023-05-24T03:41:02.884Z,81.93
2023-05-24T03:43:29.665Z,82.11
2023-05-24T03:45:56.419Z,82.31
2023-05-24T03:48:23.150Z,82.34
2023-05-24T03:50:49.804Z,82.48
2023-05-24T03:53:16.433Z,82.71
2023-05-24T03:55:43.186Z,82.70
2023-05-24T03:58:09.869Z,82.26
2023-05-24T04:00:36.555Z,81.71
2023-05-24T04:03:03.446Z,81.70
2023-05-24T04:05:30.239Z,81.63
2023-05-24T04:07:56.998Z,81.73
2023-05-24T04:10:23.642Z,81.90
2023-05-24T04:12:50.383Z,82.27
2023-05-24T04:15:17.284Z,82.80
2023-05-24T04:17:44.677Z,82.59
2023-05-24T04:20:11.929Z,82.68
2023-05-24T04:22:38.934Z,83.08
2023-05-24T04:25:06.511Z,82.15
2023-05-24T04:27:33.252Z,82.40
2023-05-24T04:30:00.022Z,82.44
2023-05-24T04:32:26.744Z,82.33
2023-05-24T04:34:53.764Z,82.25
2023-05-24T04:37:20.815Z,82.51
2023-05-24T04:39:47.520Z,82.78
2023-05-24T04:42:14.437Z,83.34
2023-05-24T04:44:41.209Z,83.55
2023-05-24T04:47:09.019Z,83.60
2023-05-24T04:49:35.883Z,82.48
2023-05-24T04:52:02.589Z,81.67
2023-05-24T04:54:29.483Z,81.53
2023-05-24T04:56:56.147Z,81.48
2023-05-24T04:59:22.806Z,81.65
2023-05-24T05:01:49.778Z,81.52
2023-05-24T05:04:16.664Z,81.67
2023-05-24T05:06:44.754Z,81.16
2023-05-24T05:09:13.627Z,81.42
2023-05-24T05:11:40.645Z,82.02
2023-05-24T05:14:09.656Z,82.09
2023-05-24T05:16:37.189Z,82.23
2023-05-24T05:19:07.018Z,82.50
2023-05-24T05:21:33.976Z,82.28
2023-05-24T05:24:01.315Z,83.08
2023-05-24T05:26:28.322Z,82.21
2023-05-24T05:28:55.157Z,81.98
2023-05-24T05:31:22.190Z,80.98
2023-05-24T05:33:49.154Z,80.18
2023-05-24T05:36:16.311Z,79.50
2023-05-24T05:38:43.089Z,79.78
2023-05-24T05:41:09.997Z,78.75
2023-05-24T05:43:36.638Z,78.30
2023-05-24T05:46:03.359Z,79.28
2023-05-24T05:48:45.632Z,78.78
2023-05-24T05:51:13.413Z,79.42
2023-05-24T05:53:40.208Z,79.35
2023-05-24T05:56:07.351Z,78.76
2023-05-24T05:58:34.006Z,78.87
2023-05-24T06:01:00.706Z,79.59
2023-05-24T06:03:27.607Z,80.06
2023-05-24T06:05:54.467Z,78.59
2023-05-24T06:08:21.134Z,74.17
2023-05-24T06:10:48.496Z,74.58
2023-05-24T06:13:16.008Z,74.16
2023-05-24T06:15:42.831Z,74.00
2023-05-24T06:18:09.564Z,73.90
2023-05-24T06:20:36.993Z,73.30
2023-05-24T06:23:03.825Z,72.19
2023-05-24T06:25:31.008Z,73.26
2023-05-24T06:27:57.748Z,73.32
2023-05-24T06:30:24.545Z,73.05
2023-05-24T06:32:51.457Z,73.83
2023-05-24T06:35:18.131Z,74.26
2023-05-24T06:37:44.761Z,73.76
2023-05-24T06:40:31.953Z,74.65
2023-05-24T06:42:58.796Z,75.20
2023-05-24T06:45:25.532Z,75.49
2023-05-24T06:47:52.373Z,75.41
2023-05-24T06:50:19.048Z,75.65
2023-05-24T06:52:45.681Z,75.12
2023-05-24T06:55:12.363Z,75.42
2023-05-24T06:57:39.046Z,75.29
2023-05-24T07:00:12.535Z,75.20
2023-05-24T07:02:39.420Z,73.54
2023-05-24T07:05:06.756Z,73.45
2023-05-24T07:07:33.768Z,74.50
2023-05-24T07:10:00.509Z,74.49
2023-05-24T07:12:27.176Z,75.09
2023-05-24T07:14:56.163Z,75.12
2023-05-24T07:17:22.990Z,75.25
2023-05-24T07:19:49.769Z,75.19
2023-05-24T07:22:16.629Z,75.97
2023-05-24T07:24:43.672Z,75.89
2023-05-24T07:27:10.308Z,74.83
2023-05-24T07:29:37.022Z,75.62
2023-05-24T07:32:04.105Z,75.99
2023-05-24T07:34:31.516Z,75.97
2023-05-24T07:37:00.836Z,76.11
2023-05-24T07:39:27.785Z,75.93
2023-05-24T07:41:54.810Z,75.28
2023-05-24T07:44:21.506Z,75.54
2023-05-24T07:46:48.306Z,75.80
2023-05-24T07:49:15.175Z,75.67
2023-05-24T07:51:41.904Z,75.55
2023-05-24T07:54:08.683Z,75.17
2023-05-24T07:56:36.213Z,75.09
2023-05-24T07:59:05.715Z,75.36
2023-05-24T08:01:34.420Z,75.50
2023-05-24T08:04:02.902Z,75.65
2023-05-24T08:06:30.757Z,76.13
2023-05-24T08:08:57.725Z,73.39
2023-05-24T08:11:24.480Z,73.64
2023-05-24T08:13:51.452Z,73.41
2023-05-24T08:16:18.874Z,73.68
2023-05-24T08:18:46.161Z,74.17
2023-05-24T08:21:12.999Z,73.71
2023-05-24T08:23:39.666Z,74.18
2023-05-24T08:26:06.455Z,74.69
2023-05-24T08:28:33.581Z,74.48
2023-05-24T08:31:00.397Z,74.31
2023-05-24T08:33:27.087Z,74.14
2023-05-24T08:35:53.866Z,73.52
2023-05-24T08:38:20.508Z,73.11
2023-05-24T08:40:48.196Z,73.47
2023-05-24T08:43:14.854Z,72.76
2023-05-24T08:45:41.613Z,72.33
2023-05-24T08:48:09.321Z,72.58
2023-05-24T08:50:36.040Z,73.66
2023-05-24T08:53:04.808Z,73.34
2023-05-24T08:55:33.523Z,72.67
2023-05-24T08:58:00.745Z,72.21
2023-05-24T09:00:27.619Z,71.77
2023-05-24T09:02:54.389Z,71.91
2023-05-24T09:05:23.962Z,72.31
2023-05-24T09:07:53.362Z,73.02
2023-05-24T09:10:21.683Z,72.44
2023-05-24T09:12:52.351Z,73.22
2023-05-24T09:15:19.203Z,73.39
2023-05-24T09:17:45.945Z,73.69
2023-05-24T09:20:12.825Z,73.42
2023-05-24T09:22:42.311Z,72.94
2023-05-24T09:25:10.242Z,73.55
2023-05-24T09:27:37.037Z,74.14
2023-05-24T09:30:05.585Z,74.10
2023-05-24T09:32:32.463Z,74.10
2023-05-24T09:34:59.249Z,74.01
2023-05-24T09:37:32.878Z,72.81
2023-05-24T09:40:29.991Z,73.28
2023-05-24T09:43:08.821Z,73.76
2023-05-24T09:45:46.821Z,73.97
2023-05-24T09:49:14.359Z,73.70
2023-05-24T09:55:28.799Z,73.69
2023-05-24T09:58:06.008Z,73.28
2023-05-24T10:00:40.000Z,73.60
2023-05-24T10:03:08.574Z,73.62
2023-05-24T10:05:36.038Z,74.01
2023-05-24T10:08:05.054Z,74.19
2023-05-24T10:10:32.691Z,73.57
2023-05-24T10:12:59.938Z,74.25
2023-05-24T10:15:27.591Z,74.33
2023-05-24T10:17:54.931Z,75.02
2023-05-24T10:20:23.147Z,75.00
2023-05-24T10:22:52.706Z,75.29
2023-05-24T10:25:25.669Z,73.84
2023-05-24T10:28:00.831Z,73.70
2023-05-24T10:30:40.519Z,73.78
2023-05-24T10:33:08.242Z,72.97
2023-05-24T10:35:38.035Z,72.09
2023-05-24T10:38:08.024Z,71.77
2023-05-24T10:40:35.131Z,72.71
2023-05-24T10:43:06.636Z,72.55
2023-05-24T10:45:40.723Z,73.19
2023-05-24T10:48:13.845Z,72.61
2023-05-24T10:50:41.180Z,72.81
2023-05-24T10:53:12.798Z,71.89
2023-05-24T10:55:53.126Z,72.61
2023-05-24T10:58:20.448Z,72.75
2023-05-24T11:00:48.944Z,73.64
2023-05-24T11:03:23.784Z,73.96
2023-05-24T11:05:51.834Z,74.45
2023-05-24T11:08:26.119Z,74.71
2023-05-24T11:13:41.453Z,74.87
2023-05-24T11:16:08.293Z,73.75
2023-05-24T11:18:40.090Z,72.85
2023-05-24T11:21:06.902Z,72.56
2023-05-24T11:23:35.411Z,72.81
2023-05-24T11:26:03.825Z,72.26
2023-05-24T11:29:28.050Z,72.19
2023-05-24T11:31:57.761Z,72.15
2023-05-24T11:48:30.859Z,70.24
2023-05-24T11:50:57.971Z,70.10
2023-05-24T11:53:24.965Z,70.53
2023-05-24T11:55:54.460Z,69.98
2023-05-24T11:58:37.182Z,69.84
2023-05-24T12:01:04.099Z,70.16
2023-05-24T12:18:23.646Z,70.46
2023-05-24T12:20:50.827Z,69.27
2023-05-24T12:23:20.631Z,69.30
2023-05-24T12:25:47.460Z,70.04
2023-05-24T12:28:14.203Z,70.08
2023-05-24T12:30:43.585Z,69.75
2023-05-24T12:33:11.311Z,69.45
2023-05-24T12:35:40.569Z,69.62
2023-05-24T12:38:08.851Z,70.23
2023-05-24T12:40:35.830Z,68.30
2023-05-24T12:43:02.825Z,68.39
2023-05-24T12:45:29.540Z,68.60
2023-05-24T12:47:58.141Z,68.09
2023-05-24T12:50:25.896Z,67.93
2023-05-24T12:52:53.246Z,67.35
2023-05-24T12:55:21.953Z,66.56
2023-05-24T12:57:53.308Z,66.38
2023-05-24T13:00:27.016Z,66.60
2023-05-24T13:02:56.243Z,67.50
2023-05-24T13:05:24.306Z,66.95
2023-05-24T13:07:51.646Z,65.96
2023-05-24T13:10:19.556Z,66.70
2023-05-24T13:12:47.153Z,67.28
2023-05-24T13:15:14.273Z,66.52
2023-05-24T13:17:41.812Z,66.04
2023-05-24T13:20:11.303Z,66.65
2023-05-24T13:22:38.820Z,66.93
2023-05-24T13:25:07.177Z,67.31
2023-05-24T13:27:34.481Z,67.04
2023-05-24T13:30:02.703Z,66.38
2023-05-24T13:32:29.523Z,66.52
2023-05-24T13:34:56.259Z,66.82
2023-05-24T13:37:23.633Z,66.39
2023-05-24T13:39:50.574Z,66.06
2023-05-24T13:42:17.321Z,65.94
2023-05-24T13:44:44.070Z,66.19
2023-05-24T13:47:10.799Z,66.88
2023-05-24T13:49:38.119Z,66.78
2023-05-24T13:52:04.976Z,66.14
2023-05-24T13:54:32.256Z,65.87
2023-05-24T13:56:59.629Z,65.90
2023-05-24T13:59:27.451Z,66.21
2023-05-24T14:01:54.169Z,66.82
2023-05-24T14:04:20.879Z,67.32
2023-05-24T14:06:47.556Z,66.52
2023-05-24T14:09:15.261Z,65.31
2023-05-24T14:11:42.031Z,65.29
2023-05-24T14:16:38.380Z,65.69
2023-05-24T14:19:05.151Z,65.52
2023-05-24T14:23:59.069Z,66.24
2023-05-24T14:26:25.797Z,67.03
2023-05-24T14:28:55.947Z,67.26
2023-05-24T14:31:23.277Z,66.67
2023-05-24T14:33:50.004Z,66.71
2023-05-24T14:36:16.729Z,65.52
2023-05-24T14:38:43.398Z,66.22
2023-05-24T14:41:10.181Z,64.45
2023-05-24T14:43:37.936Z,64.74
2023-05-24T14:46:04.731Z,65.76
2023-05-24T14:48:31.458Z,65.88
2023-05-24T14:50:58.195Z,65.61
2023-05-24T14:53:24.871Z,66.44
2023-05-24T14:55:53.876Z,65.61
2023-05-24T14:58:20.578Z,65.48
2023-05-24T15:00:47.502Z,65.85
2023-05-24T15:03:15.157Z,67.39
2023-05-24T15:05:45.625Z,67.05
2023-05-24T15:08:12.470Z,67.02
2023-05-24T15:11:33.357Z,65.99
2023-05-24T15:14:01.013Z,66.38
2023-05-24T15:16:27.974Z,66.72
2023-05-24T15:18:55.031Z,67.24
2023-05-24T15:21:21.733Z,67.36
2023-05-24T15:23:48.429Z,67.73
2023-05-24T15:26:15.159Z,67.57
2023-05-24T15:28:41.898Z,67.71
2023-05-24T15:31:08.595Z,67.75
2023-05-24T15:33:36.321Z,67.86
2023-05-24T15:36:04.194Z,67.92
2023-05-24T15:38:31.229Z,67.55
2023-05-24T15:40:57.904Z,67.08
2023-05-24T15:43:24.562Z,67.39
2023-05-24T15:45:51.463Z,66.55
2023-05-24T15:48:18.242Z,66.75
2023-05-24T15:51:09.395Z,66.52
2023-05-24T15:53:32.541Z,65.50
2023-05-24T15:55:59.805Z,66.02
2023-05-24T15:58:26.491Z,65.69
2023-05-24T16:00:54.538Z,66.68
2023-05-24T16:03:21.402Z,66.86
2023-05-24T16:05:49.466Z,66.90
2023-05-24T16:08:17.173Z,67.33
2023-05-24T16:10:44.638Z,66.67
2023-05-24T16:13:11.655Z,67.23
2023-05-24T16:15:41.087Z,67.18
2023-05-24T16:18:08.522Z,67.46
2023-05-24T16:20:35.327Z,67.46
2023-05-24T16:23:03.253Z,68.09
2023-05-24T16:25:29.954Z,68.84
2023-05-24T16:27:56.814Z,69.04
2023-05-24T16:30:23.706Z,69.14
2023-05-24T16:32:50.516Z,68.86
2023-05-24T16:35:17.229Z,69.10
2023-05-24T16:37:44.014Z,67.90
2023-05-24T16:40:11.199Z,68.24
2023-05-24T16:42:37.865Z,68.28
2023-05-24T16:45:05.247Z,68.95
2023-05-24T16:47:32.537Z,69.50
2023-05-24T16:49:59.220Z,69.90
2023-05-24T16:56:10.523Z,70.39
2023-05-24T16:58:37.478Z,70.41
2023-05-24T17:01:04.221Z,71.05
2023-05-24T17:04:11.658Z,70.97
2023-05-24T17:06:38.565Z,70.82
2023-05-24T17:09:05.246Z,70.11
2023-05-24T17:11:32.040Z,70.82
2023-05-24T17:13:58.763Z,70.94
2023-05-24T17:16:28.212Z,71.31
2023-05-24T17:18:58.638Z,71.36
2023-05-24T17:21:27.992Z,71.74
2023-05-24T17:23:55.625Z,71.60
2023-05-24T17:26:26.343Z,71.52
2023-05-24T17:28:53.148Z,71.86
2023-05-24T17:31:20.002Z,72.06
2023-05-24T17:33:46.750Z,72.15
2023-05-24T17:36:13.505Z,72.29
2023-05-24T17:38:40.296Z,72.43
2023-05-24T17:41:10.053Z,72.58
2023-05-24T17:43:38.778Z,72.75
2023-05-24T17:46:08.358Z,72.62
2023-05-24T17:48:41.983Z,72.67
2023-05-24T17:51:10.519Z,73.03
2023-05-24T17:53:38.106Z,73.13
2023-05-24T17:56:05.461Z,73.06
2023-05-24T17:58:35.666Z,73.17
2023-05-24T18:01:07.001Z,73.36
2023-05-24T18:03:36.573Z,73.32
2023-05-24T18:06:04.244Z,73.56
2023-05-24T18:08:31.786Z,73.99
2023-05-24T18:10:58.734Z,73.85
2023-05-24T18:13:25.891Z,74.07
2023-05-24T18:15:52.679Z,74.21
2023-05-24T18:18:19.413Z,74.14
2023-05-24T18:20:46.109Z,73.77
2023-05-24T18:23:13.173Z,73.53
2023-05-24T18:25:39.811Z,73.73
2023-05-24T18:28:07.400Z,73.76
2023-05-24T18:30:34.192Z,73.27
2023-05-24T18:33:07.000Z,74.19
2023-05-24T18:35:35.133Z,74.09
2023-05-24T18:38:01.806Z,73.73
2023-05-24T18:40:28.462Z,73.35
2023-05-24T18:42:55.182Z,73.49
2023-05-24T18:45:22.087Z,73.50
2023-05-24T18:47:48.775Z,72.96
2023-05-24T18:50:15.699Z,73.10
2023-05-24T18:52:42.457Z,73.02
2023-05-24T18:55:12.048Z,73.40
2023-05-24T18:57:39.338Z,73.72
2023-05-24T19:00:07.416Z,73.83
2023-05-24T19:02:41.010Z,74.23
2023-05-24T19:05:08.377Z,73.75
2023-05-24T19:07:35.517Z,73.67
2023-05-24T19:10:02.369Z,73.56
2023-05-24T19:12:29.157Z,73.84
2023-05-24T19:14:55.926Z,73.43
2023-05-24T19:17:24.284Z,73.49
2023-05-24T19:19:51.110Z,73.23
2023-05-24T19:22:17.805Z,73.66
2023-05-24T19:24:44.454Z,73.47
2023-05-24T19:27:11.235Z,73.40
2023-05-24T19:29:39.779Z,72.81
2023-05-24T19:32:07.362Z,72.59
2023-05-24T19:34:35.511Z,73.00
2023-05-24T19:37:02.201Z,73.14
2023-05-24T19:39:29.300Z,72.99
2023-05-24T19:41:56.005Z,73.20
2023-05-24T19:44:22.640Z,73.37
2023-05-24T19:46:49.355Z,72.78
2023-05-24T19:49:16.032Z,72.68
2023-05-24T19:51:42.873Z,72.20
2023-05-24T19:54:09.500Z,72.23
2023-05-24T19:56:36.354Z,72.46
2023-05-24T19:59:03.262Z,72.36
2023-05-24T20:01:29.989Z,72.29
2023-05-24T20:03:56.718Z,72.79
2023-05-24T20:06:23.484Z,72.73
2023-05-24T20:08:50.164Z,72.76
2023-05-24T20:11:16.866Z,73.01
2023-05-24T20:13:43.566Z,72.70
2023-05-24T20:16:10.239Z,73.46
2023-05-24T20:18:37.289Z,72.81
2023-05-24T20:21:04.064Z,73.20
2023-05-24T20:23:31.577Z,73.09
2023-05-24T20:25:58.233Z,73.47
2023-05-24T20:28:30.548Z,73.75
2023-05-24T20:30:58.724Z,73.44
2023-05-24T20:33:25.564Z,73.89
2023-05-24T20:35:54.072Z,73.12
2023-05-24T20:38:20.749Z,73.88
2023-05-24T20:40:47.462Z,74.10
2023-05-24T20:43:14.187Z,73.89
2023-05-24T20:45:40.971Z,73.86
2023-05-24T20:48:07.718Z,74.33
2023-05-24T20:50:34.564Z,74.37
2023-05-24T20:53:01.388Z,73.75
2023-05-24T20:55:28.082Z,73.67
2023-05-24T20:57:54.739Z,73.89
2023-05-24T21:00:21.422Z,74.08
2023-05-24T21:02:48.192Z,74.26
2023-05-24T21:05:15.010Z,74.22
2023-05-24T21:07:41.710Z,74.73
2023-05-24T21:10:09.431Z,74.09
2023-05-24T21:12:36.112Z,74.49
2023-05-24T21:15:02.805Z,74.16
2023-05-24T21:17:29.578Z,74.12
2023-05-24T21:19:56.307Z,73.62
2023-05-24T21:22:23.101Z,73.83
2023-05-24T21:24:50.016Z,73.51
2023-05-24T21:27:18.443Z,73.65
2023-05-24T21:29:46.064Z,73.66
2023-05-24T21:32:12.722Z,73.60
2023-05-24T21:34:39.387Z,73.81
2023-05-24T21:37:06.090Z,73.82
2023-05-24T21:39:32.915Z,74.38
2023-05-24T21:41:59.589Z,74.62
2023-05-24T21:44:26.283Z,74.84
2023-05-24T21:46:53.017Z,74.52
2023-05-24T21:49:21.407Z,74.88
2023-05-24T21:51:48.137Z,74.56
2023-05-24T21:54:15.114Z,74.63
2023-05-24T21:56:41.782Z,74.89
2023-05-24T21:59:08.467Z,74.63
2023-05-24T22:01:35.315Z,74.50
2023-05-24T22:04:02.006Z,74.99
2023-05-24T22:06:28.703Z,74.76
2023-05-24T22:08:57.948Z,74.63
2023-05-24T22:11:24.647Z,74.76
2023-05-24T22:13:51.647Z,74.38
2023-05-24T22:16:18.337Z,74.52
2023-05-24T22:18:45.128Z,74.51
2023-05-24T22:21:14.404Z,74.62
2023-05-24T22:23:41.375Z,74.73
2023-05-24T22:26:08.100Z,74.20
2023-05-24T22:28:53.889Z,74.72
2023-05-24T22:31:21.650Z,74.36
2023-05-24T22:33:49.013Z,74.92
2023-05-24T22:36:15.750Z,75.04
2023-05-24T22:38:42.487Z,74.89
2023-05-24T22:41:09.241Z,74.45
2023-05-24T22:43:35.983Z,74.62
2023-05-24T22:46:02.725Z,74.40
2023-05-24T22:48:29.492Z,74.39
2023-05-24T22:50:57.203Z,74.65
2023-05-24T22:53:24.076Z,74.64
2023-05-24T22:55:50.999Z,74.36
2023-05-24T22:58:21.719Z,74.37
2023-05-24T23:00:48.449Z,74.17
2023-05-24T23:03:15.197Z,74.91
2023-05-24T23:05:42.075Z,74.67
2023-05-24T23:08:13.210Z,74.97
2023-05-24T23:10:45.760Z,74.99
2023-05-24T23:13:16.882Z,74.79
2023-05-24T23:15:43.932Z,75.15
2023-05-24T23:18:16.400Z,75.08
2023-05-24T23:20:44.609Z,75.85
2023-05-24T23:23:12.417Z,76.14
2023-05-24T23:25:39.399Z,76.28
2023-05-24T23:28:06.093Z,76.78
2023-05-24T23:30:33.359Z,76.90
2023-05-24T23:33:00.187Z,77.50
2023-05-24T23:35:26.944Z,77.56
2023-05-24T23:37:53.863Z,77.71
2023-05-24T23:40:20.932Z,78.01
2023-05-24T23:42:47.764Z,78.12
2023-05-24T23:45:15.709Z,79.11
2023-05-24T23:47:42.437Z,78.99
2023-05-24T23:50:09.707Z,78.90
2023-05-24T23:52:36.385Z,78.79
2023-05-24T23:55:03.418Z,79.01
2023-05-24T23:57:30.054Z,79.17
2023-05-24T23:59:56.717Z,79.42
